METAR AND TAF INFORMATION
METAR FOR MMMY
ADDS - METARS form results

(2016 UTC 25 April 2018)
Data provider http://aviationweather.gov/adds/metars/
 
METAR text: MMMY 251940Z 14009KT 15SM BKN030 BKN040 26/18 A2996 RMK 8/800
Conditions at: MMMY (MONTERREY/GEN MA, MX) observed 1940 UTC 25 April 2018
Temperature: 26.0°C (79°F)
Dewpoint: 18.0°C (64°F) [RH = 61%]
Pressure (altimeter): 29.96 inches Hg (1014.6 mb)
Winds: from the SE (140 degrees) at 10 MPH (9 knots; 4.7 m/s)
Visibility: 15 miles (24 km)
Ceiling: 3000 feet AGL
Clouds: broken clouds at 3000 feet AGL
broken clouds at 4000 feet AGL
Weather: no significant weather observed at this time

Forecast for: MMMY (MONTERREY/GEN MA, MX)
Text: TAF MMMY 251725Z 2518/2624 14015KT P6SM BKN025 TX27/2520Z TN18/2610Z
Forecast period: 1800 to 2200 UTC 25 April 2018
Forecast type: FROM: standard forecast or significant change
Winds: from the SE (140 degrees) at 17 MPH (15 knots; 7.8 m/s)
Visibility: 6 or more miles (10+ km)
Ceiling: 2500 feet AGL
Clouds: broken clouds at 2500 feet AGL
Weather: no significant weather forecast for this period
Forecast for: MMMY (MONTERREY/GEN MA, MX)
Text: TAF MMMY 251725Z 2518/2624 14015KT P6SM BKN025 TX27/2520Z TN18/2610Z
Forecast period: 1800 to 2200 UTC 25 April 2018
Forecast type: FROM: standard forecast or significant change
Winds: from the SE (140 degrees) at 17 MPH (15 knots; 7.8 m/s)
Visibility: 6 or more miles (10+ km)
Ceiling: 2500 feet AGL
Clouds: broken clouds at 2500 feet AGL
Weather: no significant weather forecast for this period
Forecast for: MMMY (MONTERREY/GEN MA, MX)
Text: TAF MMMY 251725Z 2518/2624 14015KT P6SM BKN025 TX27/2520Z TN18/2610Z
Forecast period: 2200 UTC 25 April 2018 to 0400 UTC 26 April 2018
Forecast type: FROM: standard forecast or significant change
Winds: from the ESE (120 degrees) at 17 MPH (15 knots; 7.8 m/s)
Visibility: 5 miles (8 km)
Ceiling: 2000 feet AGL
Clouds: broken clouds at 2000 feet AGL
overcast cloud deck at 8000 feet AGL
Weather: VC SH  (vicinity, showers)
Forecast for: MMMY (MONTERREY/GEN MA, MX)
Text: TAF MMMY 251725Z 2518/2624 14015KT P6SM BKN025 TX27/2520Z TN18/2610Z
Forecast period: 2200 UTC 25 April 2018 to 0400 UTC 26 April 2018
Forecast type: FROM: standard forecast or significant change
Winds: from the ESE (120 degrees) at 17 MPH (15 knots; 7.8 m/s)
Visibility: 5 miles (8 km)
Ceiling: 2000 feet AGL
Clouds: broken clouds at 2000 feet AGL
overcast cloud deck at 8000 feet AGL
Weather: VC SH  (vicinity, showers)
Forecast for: MMMY (MONTERREY/GEN MA, MX)
Text: TAF MMMY 251725Z 2518/2624 14015KT P6SM BKN025 TX27/2520Z TN18/2610Z
Forecast period: 2200 UTC 25 April 2018 to 0100 UTC 26 April 2018
Forecast type: TEMPORARY: The following changes expected for less than half the time period
Visibility: 2.00 miles (3.22 km)
Ceiling: 1000 feet AGL
Clouds: overcast cloud deck at 1000 feet AGL
Weather: TSRA  (rain associated with thunderstorm(s))
Forecast for: MMMY (MONTERREY/GEN MA, MX)
Text: TAF MMMY 251725Z 2518/2624 14015KT P6SM BKN025 TX27/2520Z TN18/2610Z
Forecast period: 2200 UTC 25 April 2018 to 0100 UTC 26 April 2018
Forecast type: TEMPORARY: The following changes expected for less than half the time period
Visibility: 2.00 miles (3.22 km)
Ceiling: 1000 feet AGL
Clouds: overcast cloud deck at 1000 feet AGL
Weather: TSRA  (rain associated with thunderstorm(s))
Forecast for: MMMY (MONTERREY/GEN MA, MX)
Text: TAF MMMY 251725Z 2518/2624 14015KT P6SM BKN025 TX27/2520Z TN18/2610Z
Forecast period: 0400 to 1700 UTC 26 April 2018
Forecast type: FROM: standard forecast or significant change
Winds: calm
Visibility: 3 miles (5 km)
Ceiling: 500 feet AGL
Clouds: broken clouds at 500 feet AGL
overcast cloud deck at 1000 feet AGL
Weather: DZ BR  (drizzle, mist)
Forecast for: MMMY (MONTERREY/GEN MA, MX)
Text: TAF MMMY 251725Z 2518/2624 14015KT P6SM BKN025 TX27/2520Z TN18/2610Z
Forecast period: 0400 to 1700 UTC 26 April 2018
Forecast type: FROM: standard forecast or significant change
Winds: calm
Visibility: 3 miles (5 km)
Ceiling: 500 feet AGL
Clouds: broken clouds at 500 feet AGL
overcast cloud deck at 1000 feet AGL
Weather: DZ BR  (drizzle, mist)
Forecast for: MMMY (MONTERREY/GEN MA, MX)
Text: TAF MMMY 251725Z 2518/2624 14015KT P6SM BKN025 TX27/2520Z TN18/2610Z
Forecast period: 1000 to 1400 UTC 26 April 2018
Forecast type: TEMPORARY: The following changes expected for less than half the time period
Visibility: 1.00 miles (1.61 km)
Ceiling: 300 feet AGL
Clouds: overcast cloud deck at 300 feet AGL
Weather: DZ  (drizzle)
Forecast for: MMMY (MONTERREY/GEN MA, MX)
Text: TAF MMMY 251725Z 2518/2624 14015KT P6SM BKN025 TX27/2520Z TN18/2610Z
Forecast period: 1000 to 1400 UTC 26 April 2018
Forecast type: TEMPORARY: The following changes expected for less than half the time period
Visibility: 1.00 miles (1.61 km)
Ceiling: 300 feet AGL
Clouds: overcast cloud deck at 300 feet AGL
Weather: DZ  (drizzle)
Forecast for: MMMY (MONTERREY/GEN MA, MX)
Text: TAF MMMY 251725Z 2518/2624 14015KT P6SM BKN025 TX27/2520Z TN18/2610Z
Forecast period: 1700 UTC 26 April 2018 to 0000 UTC 27 April 2018
Forecast type: FROM: standard forecast or significant change
Winds: from the NE (40 degrees) at 14 MPH (12 knots; 6.2 m/s)
Visibility: 4 miles (6 km)
Ceiling: 1500 feet AGL
Clouds: overcast cloud deck at 1500 feet AGL
Weather: HZ  (haze)
Forecast for: MMMY (MONTERREY/GEN MA, MX)
Text: TAF MMMY 251725Z 2518/2624 14015KT P6SM BKN025 TX27/2520Z TN18/2610Z
Forecast period: 1700 UTC 26 April 2018 to 0000 UTC 27 April 2018
Forecast type: FROM: standard forecast or significant change
Winds: from the NE (40 degrees) at 14 MPH (12 knots; 6.2 m/s)
Visibility: 4 miles (6 km)
Ceiling: 1500 feet AGL
Clouds: overcast cloud deck at 1500 feet AGL
Weather: HZ  (haze)

 AIRPORT MAP

 RUNWAY INFORMATION
Runway 11 Runway length 9843 ft Runway width 148 ft
Runway elevation 1277 ft Runway displaced threshold 0 ft Runway heading 121
Runway 29 Runway length 9843 ft Runway width 148 ft
Runway elevation 1234 ft Runway displaced threshold 0 ft Runway heading 301
Runway 16 Runway length 5909 ft Runway width 98 ft
Runway elevation 1271 ft Runway displaced threshold 0 ft Runway heading 165
Runway 34 Runway length 5909 ft Runway width 98 ft
Runway elevation 1254 ft Runway displaced threshold 0 ft Runway heading 345

 AIRPORT FREQUENCIES
Type APP Name MONTERREY Frequency 119.75 MHZ
Type ATIS Name ATIS Frequency 127.7 MHZ
Type GND Name GND Frequency 121.9 MHZ
Type TWR Name MONTERREY Frequency 118.1 MHZ

 AIRPORT NEAR NAVIGATION AIDS
Type VOR-DME Name Monterrey Frequency 114700 KHZ



Powered by Virtual Airlines Manager [v2.6.2]